Airfield :
LOGIN :

Register | Disclaimer

   EN    FR    IT 

 










Legend :    VFR   Marginal VFR   IFR   Intensive IFR   Very Intensive IFR
Visi :
Ceiling :
>= 8 km
>= 3000ft
5 to 8 km
1000 to 3000 ft
1500m to 5 km
500 to 1000 ft
800 to 1500m
200 to 500 ft
< 800m
< 200 ft
Symbols :   Thunderstorms  Fog  Heavy snow  Heavy precipitations  Wind > 20 kt
SIGMETs :     Misc.  Thunderstorms  Icing  Turbulence  Mountain Waves  Volcanic Ashes







- Airport Elevation : 268 ft
- IATA code : BFS
- Download approach charts


EGAA - Belfast Aldergrove

CURRENT METAR :
  • 171350Z 20014KT 170V230 9999 SCT035 11/04 Q1002

EXPIRED METARs :
  • 171320Z 20018KT 9999 SCT034 11/04 Q1002
  • 171250Z 21013KT 9999 SCT035 11/06 Q1002
  • 171220Z 21014G24KT 9999 FEW035 10/05 Q1002
  • 171150Z 20012KT 9999 FEW019 09/06 Q1002 RERA
  • 171120Z 23016KT 9999 SHRA SCT017 BKN022 09/06 Q1002

TAF TAF EGAA
Valid from the 17 at 12:00 until the 18 at 12:00 UTC


171056Z 1712/1812 19012KT 9999 SCT025
PROB30
TEMPO 1712/1718 19015G25KT
PROB30
TEMPO 1715/1718 7000 SHRA
BECMG 1718/1721 20018G28KT
PROB30
TEMPO 1722/1810 BKN014
PROB30
TEMPO 1811/1812 7000 SHRA
No reported NOTAMs for that airfield.



MET'MAP, your aeronautical weather chart ! - Copyright ORBIFLY December 2007 - Disclaimer

ORBIFLY MET'MAP TEAM :

Programming & Development : Alexandra Zaïnal
Concept & Development : Baudouin d'Aumeries
Co-Development & Prog : Marc-Olivier Méhu
Technical & hardware support : Manuel Goepfert

Contact : metmap@orbifly.com




SOURCES & CREDITS :

   NOAA